createdAt,value
2019-06-27T00:00:47.554Z,86.99
2019-06-27T00:03:16.963Z,86.96
2019-06-27T00:05:46.248Z,86.98
2019-06-27T00:08:15.701Z,86.96
2019-06-27T00:10:44.955Z,87.04
2019-06-27T00:13:14.344Z,87.04
2019-06-27T00:15:44.112Z,86.99
2019-06-27T00:18:13.335Z,86.99
2019-06-27T00:20:42.683Z,86.97
2019-06-27T00:23:13.869Z,87.04
2019-06-27T00:25:43.108Z,87.04
2019-06-27T00:28:12.397Z,87.02
2019-06-27T00:30:41.719Z,86.99
2019-06-27T00:33:10.994Z,87.02
2019-06-27T00:35:41.391Z,87.04
2019-06-27T00:38:10.880Z,87.06
2019-06-27T00:40:40.107Z,87.03
2019-06-27T00:43:09.554Z,87.00
2019-06-27T00:45:39.150Z,86.99
2019-06-27T00:48:08.420Z,87.00
2019-06-27T00:50:37.738Z,86.97
2019-06-27T00:53:07.188Z,86.97
2019-06-27T00:55:36.415Z,86.99
2019-06-27T00:58:05.683Z,87.03
2019-06-27T01:00:35.000Z,87.08
2019-06-27T01:03:04.225Z,87.10
2019-06-27T01:05:33.609Z,87.12
2019-06-27T01:08:03.192Z,87.15
2019-06-27T01:10:32.398Z,87.16
2019-06-27T01:13:02.030Z,87.20
2019-06-27T01:15:31.351Z,87.27
2019-06-27T01:18:00.616Z,87.29
2019-06-27T01:20:29.931Z,87.33
2019-06-27T01:22:59.276Z,87.34
2019-06-27T01:25:28.513Z,87.34
2019-06-27T01:27:58.161Z,87.31
2019-06-27T01:30:27.710Z,87.33
2019-06-27T01:32:56.918Z,87.33
2019-06-27T01:35:26.270Z,87.33
2019-06-27T01:37:55.586Z,87.34
2019-06-27T01:40:24.888Z,87.31
2019-06-27T01:42:54.182Z,87.30
2019-06-27T01:45:29.293Z,87.27
2019-06-27T01:47:58.546Z,87.23
2019-06-27T01:50:27.780Z,87.18
2019-06-27T01:52:57.283Z,87.15
2019-06-27T01:55:26.705Z,87.16
2019-06-27T01:57:55.925Z,87.13
2019-06-27T02:00:26.584Z,86.99
2019-06-27T02:02:55.935Z,86.89
2019-06-27T02:05:25.137Z,86.78
2019-06-27T02:07:54.644Z,86.65
2019-06-27T02:10:24.021Z,86.43
2019-06-27T02:12:53.237Z,86.34
2019-06-27T02:15:23.054Z,86.11
2019-06-27T02:17:52.510Z,85.92
2019-06-27T02:20:21.917Z,85.69
2019-06-27T02:22:51.134Z,85.52
2019-06-27T02:25:22.147Z,85.23
2019-06-27T02:28:03.359Z,85.17
2019-06-27T02:30:30.993Z,84.98
2019-06-27T02:33:00.196Z,84.77
2019-06-27T02:35:29.401Z,84.64
2019-06-27T02:37:59.189Z,84.42
2019-06-27T02:40:28.427Z,84.30
2019-06-27T02:42:57.859Z,84.08
2019-06-27T02:45:27.183Z,83.73
2019-06-27T02:47:56.502Z,83.52
2019-06-27T02:50:25.748Z,83.26
2019-06-27T02:52:55.203Z,83.03
2019-06-27T02:55:24.397Z,82.89
2019-06-27T02:57:53.599Z,82.83
2019-06-27T03:00:23.013Z,82.72
2019-06-27T03:02:52.218Z,82.50
2019-06-27T03:05:21.533Z,82.23
2019-06-27T03:07:51.240Z,82.04
2019-06-27T03:10:20.848Z,82.06
2019-06-27T03:12:50.008Z,81.86
2019-06-27T03:15:19.622Z,81.74
2019-06-27T03:17:48.819Z,81.57
2019-06-27T03:20:18.443Z,81.64
2019-06-27T03:22:48.018Z,81.65
2019-06-27T03:25:17.250Z,81.64
2019-06-27T03:27:46.458Z,81.51
2019-06-27T03:30:16.332Z,81.30
2019-06-27T03:32:45.549Z,81.10
2019-06-27T03:35:15.051Z,80.92
2019-06-27T03:37:44.653Z,80.66
2019-06-27T03:40:15.560Z,80.41
2019-06-27T03:42:45.031Z,80.22
2019-06-27T03:45:16.063Z,80.01
2019-06-27T03:47:45.386Z,79.86
2019-06-27T03:50:15.311Z,79.79
2019-06-27T03:52:44.689Z,79.68
2019-06-27T03:55:15.597Z,79.60
2019-06-27T03:57:45.740Z,79.61
2019-06-27T04:00:20.569Z,79.65
2019-06-27T04:02:50.002Z,79.49
2019-06-27T04:05:19.239Z,79.26
2019-06-27T04:07:48.453Z,79.24
2019-06-27T04:10:18.062Z,79.11
2019-06-27T04:12:47.322Z,78.91
2019-06-27T04:15:16.547Z,78.44
2019-06-27T04:17:45.870Z,78.11
2019-06-27T04:20:15.440Z,78.19
2019-06-27T04:22:44.636Z,78.21
2019-06-27T04:25:14.148Z,78.12
2019-06-27T04:27:43.361Z,77.89
2019-06-27T04:30:13.001Z,77.79
2019-06-27T04:32:42.493Z,77.68
2019-06-27T04:35:11.844Z,77.61
2019-06-27T04:37:41.029Z,77.46
2019-06-27T04:40:10.490Z,77.25
2019-06-27T04:42:39.754Z,77.11
2019-06-27T04:45:08.962Z,76.96
2019-06-27T04:47:38.458Z,76.74
2019-06-27T04:50:07.774Z,76.36
2019-06-27T04:52:37.015Z,76.22
2019-06-27T04:55:06.794Z,76.21
2019-06-27T04:57:36.075Z,76.27
2019-06-27T05:00:05.642Z,76.19
2019-06-27T05:02:35.111Z,76.00
2019-06-27T05:05:04.735Z,75.97
2019-06-27T05:07:34.113Z,75.72
2019-06-27T05:10:03.512Z,75.23
2019-06-27T05:12:32.735Z,75.08
2019-06-27T05:15:02.334Z,74.95
2019-06-27T05:17:31.751Z,74.56
2019-06-27T05:20:03.237Z,74.49
2019-06-27T05:22:32.235Z,74.39
2019-06-27T05:25:01.621Z,74.43
2019-06-27T05:27:30.878Z,74.40
2019-06-27T05:30:09.576Z,74.38
2019-06-27T05:32:32.541Z,74.30
2019-06-27T05:35:02.023Z,74.19
2019-06-27T05:37:31.233Z,73.88
2019-06-27T05:40:00.771Z,73.69
2019-06-27T05:42:30.926Z,73.54
2019-06-27T05:45:00.154Z,73.40
2019-06-27T05:47:29.395Z,73.22
2019-06-27T05:49:58.719Z,73.15
2019-06-27T05:52:28.826Z,73.17
2019-06-27T05:54:58.416Z,72.96
2019-06-27T05:57:27.756Z,73.03
2019-06-27T05:59:56.993Z,72.89
2019-06-27T06:02:26.375Z,72.65
2019-06-27T06:04:55.638Z,72.42
2019-06-27T06:07:24.865Z,72.17
2019-06-27T06:09:54.305Z,71.77
2019-06-27T06:12:23.635Z,71.34
2019-06-27T06:14:52.854Z,71.33
2019-06-27T06:17:22.304Z,70.96
2019-06-27T06:19:52.799Z,70.38
2019-06-27T06:22:22.025Z,70.19
2019-06-27T06:24:51.312Z,69.79
2019-06-27T06:27:21.160Z,68.90
2019-06-27T06:29:50.390Z,68.38
2019-06-27T06:32:19.647Z,67.90
2019-06-27T06:34:49.314Z,67.50
2019-06-27T06:37:18.553Z,67.91
2019-06-27T06:39:47.803Z,67.33
2019-06-27T06:42:17.268Z,67.19
2019-06-27T06:44:46.486Z,66.95
2019-06-27T06:47:15.744Z,66.67
2019-06-27T06:49:45.202Z,66.54
2019-06-27T06:52:14.472Z,66.78
2019-06-27T06:54:44.795Z,66.62
2019-06-27T06:57:14.436Z,66.06
2019-06-27T06:59:45.990Z,65.64
2019-06-27T07:02:15.596Z,65.25
2019-06-27T07:04:44.814Z,64.89
2019-06-27T07:07:14.025Z,64.83
2019-06-27T07:09:43.505Z,64.85
2019-06-27T07:12:12.698Z,64.89
2019-06-27T07:14:42.296Z,64.78
2019-06-27T07:17:11.650Z,64.58
2019-06-27T07:19:40.983Z,64.29
2019-06-27T07:22:10.205Z,63.88
2019-06-27T07:24:39.663Z,63.50
2019-06-27T07:27:08.841Z,63.22
2019-06-27T07:29:38.065Z,62.97
2019-06-27T07:32:07.608Z,62.98
2019-06-27T07:34:36.877Z,62.36
2019-06-27T07:37:06.440Z,61.71
2019-06-27T07:39:36.019Z,61.66
2019-06-27T07:42:05.237Z,61.40
2019-06-27T07:44:34.464Z,61.36
2019-06-27T07:47:03.839Z,62.01
2019-06-27T07:49:33.394Z,60.29
2019-06-27T07:52:03.148Z,59.10
2019-06-27T07:54:33.063Z,56.89
2019-06-27T07:57:02.661Z,56.16
2019-06-27T07:59:31.877Z,54.96
2019-06-27T08:02:01.464Z,54.94
2019-06-27T08:04:30.760Z,55.20
2019-06-27T08:06:59.981Z,55.24
2019-06-27T08:09:29.473Z,55.65
2019-06-27T08:11:58.705Z,55.39
2019-06-27T08:14:27.954Z,54.81
2019-06-27T08:16:57.352Z,54.20
2019-06-27T08:19:28.615Z,53.21
2019-06-27T08:21:58.212Z,52.55
2019-06-27T08:24:27.439Z,52.27
2019-06-27T08:26:56.677Z,51.95
2019-06-27T08:29:26.623Z,51.48
2019-06-27T08:31:55.840Z,49.99
2019-06-27T08:34:25.123Z,47.91
2019-06-27T08:36:54.521Z,46.08
2019-06-27T08:39:23.802Z,46.70
2019-06-27T08:41:53.019Z,47.47
2019-06-27T08:44:22.847Z,47.29
2019-06-27T08:46:52.138Z,47.64
2019-06-27T08:49:21.394Z,46.95
2019-06-27T08:51:50.940Z,47.89
2019-06-27T08:54:20.341Z,46.96
2019-06-27T08:56:49.622Z,46.53
2019-06-27T08:59:19.486Z,46.55
2019-06-27T09:01:48.759Z,47.28
2019-06-27T09:04:17.965Z,47.79
2019-06-27T09:06:47.382Z,46.72
2019-06-27T09:09:16.658Z,46.06
2019-06-27T09:11:45.871Z,46.31
2019-06-27T09:14:15.285Z,46.17
2019-06-27T09:16:46.782Z,47.24
2019-06-27T09:19:15.633Z,47.36
2019-06-27T09:21:45.090Z,47.26
2019-06-27T09:24:15.632Z,44.97
2019-06-27T09:26:44.853Z,43.90
2019-06-27T09:29:14.330Z,43.13
2019-06-27T09:31:43.577Z,42.40
2019-06-27T09:34:12.787Z,41.82
2019-06-27T09:36:42.636Z,41.20
2019-06-27T09:39:13.902Z,39.94
2019-06-27T09:41:43.211Z,40.00
2019-06-27T09:44:12.447Z,39.54
2019-06-27T09:46:41.755Z,38.93
2019-06-27T09:49:11.053Z,38.88
2019-06-27T09:51:40.288Z,37.47
2019-06-27T09:54:09.558Z,37.51
2019-06-27T09:56:38.880Z,38.79
2019-06-27T09:59:08.121Z,39.62
2019-06-27T10:01:37.407Z,40.24
2019-06-27T10:04:06.746Z,39.56
2019-06-27T10:06:35.973Z,38.81
2019-06-27T10:09:06.243Z,38.50
2019-06-27T10:11:35.554Z,38.11
2019-06-27T10:14:04.823Z,37.82
2019-06-27T10:16:34.078Z,36.72
2019-06-27T10:19:03.653Z,36.60
2019-06-27T10:21:32.853Z,36.60
2019-06-27T10:24:02.153Z,35.94
2019-06-27T10:26:31.565Z,35.81
2019-06-27T10:29:00.792Z,35.41
2019-06-27T10:31:30.113Z,35.51
2019-06-27T10:33:59.608Z,35.12
2019-06-27T10:36:28.822Z,35.04
2019-06-27T10:38:58.105Z,35.78
2019-06-27T10:41:27.506Z,36.46
2019-06-27T10:43:58.558Z,35.92
2019-06-27T10:46:28.265Z,36.15
2019-06-27T10:48:57.492Z,35.54
2019-06-27T10:51:26.842Z,34.86
2019-06-27T10:53:56.786Z,35.32
2019-06-27T10:56:26.433Z,35.51
2019-06-27T10:58:55.636Z,35.83
2019-06-27T11:01:24.971Z,36.17
2019-06-27T11:03:54.278Z,35.93
2019-06-27T11:06:23.507Z,34.89
2019-06-27T11:08:52.997Z,35.27
2019-06-27T11:11:22.255Z,34.71
2019-06-27T11:13:58.905Z,34.50
2019-06-27T11:16:22.581Z,35.05
2019-06-27T11:18:51.894Z,34.28
2019-06-27T11:21:21.135Z,33.78
2019-06-27T11:23:50.719Z,34.04
2019-06-27T11:26:19.956Z,34.01
2019-06-27T11:28:49.300Z,34.46
2019-06-27T11:31:19.038Z,34.13
2019-06-27T11:33:48.275Z,33.36
2019-06-27T11:36:17.491Z,33.16
2019-06-27T11:38:47.202Z,32.86
2019-06-27T11:41:16.434Z,34.16
2019-06-27T11:43:45.671Z,35.01
2019-06-27T11:46:15.462Z,34.94
2019-06-27T11:48:44.681Z,35.24
2019-06-27T11:51:13.914Z,34.03
2019-06-27T11:53:43.987Z,33.13
2019-06-27T11:56:13.207Z,33.66
2019-06-27T11:58:42.425Z,33.69
2019-06-27T12:01:11.960Z,33.87
2019-06-27T12:03:49.308Z,34.16
2019-06-27T12:06:12.131Z,34.86
2019-06-27T12:08:41.600Z,35.46
2019-06-27T12:11:10.838Z,36.08
2019-06-27T12:13:40.100Z,36.66
2019-06-27T12:16:09.417Z,36.91
2019-06-27T12:18:38.638Z,36.70
2019-06-27T12:21:07.852Z,37.66
2019-06-27T12:23:37.509Z,37.39
2019-06-27T12:26:06.720Z,35.52
2019-06-27T12:28:36.039Z,34.72
2019-06-27T12:31:19.475Z,34.65
2019-06-27T12:33:36.563Z,33.37
2019-06-27T12:36:06.974Z,33.00
2019-06-27T12:38:36.513Z,34.03
2019-06-27T12:41:05.750Z,34.21
2019-06-27T12:43:35.123Z,34.72
2019-06-27T12:46:04.387Z,34.20
2019-06-27T12:48:36.917Z,33.46
2019-06-27T12:51:04.730Z,31.60
2019-06-27T12:53:34.251Z,31.31
2019-06-27T12:56:03.470Z,31.09
2019-06-27T12:58:33.106Z,30.55
2019-06-27T13:01:02.581Z,30.22
2019-06-27T13:03:31.865Z,30.83
2019-06-27T13:06:01.583Z,30.74
2019-06-27T13:08:30.880Z,30.66
2019-06-27T13:11:00.112Z,30.47
2019-06-27T13:13:30.573Z,30.16
2019-06-27T13:15:59.896Z,31.18
2019-06-27T13:18:29.120Z,31.23
2019-06-27T13:20:58.902Z,31.33
2019-06-27T13:23:28.449Z,31.98
2019-06-27T13:25:57.759Z,32.63
2019-06-27T13:28:27.106Z,32.68
2019-06-27T13:30:56.577Z,32.91
2019-06-27T13:33:26.623Z,33.16
2019-06-27T13:36:02.417Z,32.85
2019-06-27T13:38:38.612Z,31.92
2019-06-27T13:41:07.906Z,32.06
2019-06-27T13:43:43.038Z,31.37
2019-06-27T13:46:19.615Z,31.22
2019-06-27T13:48:53.469Z,30.45
2019-06-27T13:51:26.980Z,29.86
2019-06-27T13:53:56.718Z,30.16
2019-06-27T13:56:25.956Z,30.44
2019-06-27T13:58:55.298Z,30.96
2019-06-27T14:01:24.654Z,31.62
2019-06-27T14:03:53.864Z,31.96
2019-06-27T14:06:23.343Z,33.02
2019-06-27T14:08:55.195Z,33.99
2019-06-27T14:11:24.612Z,34.52
2019-06-27T14:13:53.945Z,34.97
2019-06-27T14:16:23.558Z,35.05
2019-06-27T14:18:52.821Z,34.25
2019-06-27T14:21:22.141Z,34.23
2019-06-27T14:23:51.420Z,33.17
2019-06-27T14:26:20.812Z,32.75
2019-06-27T14:28:50.040Z,32.70
2019-06-27T14:31:19.434Z,31.34
2019-06-27T14:33:48.742Z,30.67
2019-06-27T14:36:18.107Z,29.87
2019-06-27T14:38:47.575Z,28.97
2019-06-27T14:41:16.948Z,28.40
2019-06-27T14:43:46.176Z,28.46
2019-06-27T14:46:15.480Z,28.80
2019-06-27T14:48:45.637Z,29.52
2019-06-27T14:51:14.858Z,30.72
2019-06-27T14:53:44.207Z,31.86
2019-06-27T14:56:13.602Z,32.64
2019-06-27T14:58:42.865Z,32.99
2019-06-27T15:01:12.106Z,33.34
2019-06-27T15:03:41.433Z,33.40
2019-06-27T15:06:12.514Z,33.83
2019-06-27T15:08:41.625Z,34.40
2019-06-27T15:11:11.557Z,34.33
2019-06-27T15:13:40.796Z,34.24
2019-06-27T15:16:12.194Z,34.27
2019-06-27T15:18:41.329Z,33.36
2019-06-27T15:21:10.552Z,32.30
2019-06-27T15:23:39.838Z,32.25
2019-06-27T15:26:09.204Z,32.95
2019-06-27T15:28:38.417Z,33.13
2019-06-27T15:31:07.831Z,32.27
2019-06-27T15:33:37.300Z,31.82
2019-06-27T15:36:06.563Z,30.53
2019-06-27T15:38:36.037Z,29.02
2019-06-27T15:41:05.447Z,28.80
2019-06-27T15:43:34.670Z,28.49
2019-06-27T15:46:04.012Z,28.07
2019-06-27T15:48:33.754Z,27.98
2019-06-27T15:51:03.024Z,27.46
2019-06-27T15:53:32.421Z,26.47
2019-06-27T15:56:01.865Z,27.77
2019-06-27T15:58:31.093Z,28.02
2019-06-27T16:01:00.673Z,28.20
2019-06-27T16:03:31.983Z,28.70
2019-06-27T16:06:09.086Z,29.04
2019-06-27T16:08:32.275Z,29.69
2019-06-27T16:11:01.493Z,29.20
2019-06-27T16:13:30.858Z,28.81
2019-06-27T16:16:00.360Z,29.52
2019-06-27T16:18:29.684Z,30.13
2019-06-27T16:20:59.076Z,31.22
2019-06-27T16:23:28.874Z,31.99
2019-06-27T16:25:58.096Z,33.13
2019-06-27T16:28:27.542Z,33.84
2019-06-27T16:30:57.238Z,33.91
2019-06-27T16:33:27.580Z,32.89
2019-06-27T16:35:57.315Z,32.39
2019-06-27T16:38:26.772Z,32.02
2019-06-27T16:40:56.126Z,31.49
2019-06-27T16:43:25.332Z,30.94
2019-06-27T16:45:54.813Z,29.99
2019-06-27T16:48:24.026Z,29.74
2019-06-27T16:50:53.250Z,29.75
2019-06-27T16:53:22.769Z,30.83
2019-06-27T16:55:52.017Z,31.63
2019-06-27T16:58:21.356Z,31.80
2019-06-27T17:00:50.929Z,32.81
2019-06-27T17:03:21.786Z,32.96
2019-06-27T17:05:53.380Z,33.55
2019-06-27T17:08:22.609Z,33.75
2019-06-27T17:10:51.824Z,33.24
2019-06-27T17:13:21.049Z,33.27
2019-06-27T17:15:50.385Z,33.72
2019-06-27T17:18:19.595Z,34.14
2019-06-27T17:20:48.853Z,34.55
2019-06-27T17:23:18.309Z,34.38
2019-06-27T17:25:48.780Z,34.91
2019-06-27T17:28:18.308Z,35.39
2019-06-27T17:30:47.717Z,36.00
2019-06-27T17:33:16.940Z,36.10
2019-06-27T17:35:46.943Z,35.60
2019-06-27T17:38:16.463Z,35.96
2019-06-27T17:40:45.679Z,36.54
2019-06-27T17:43:15.089Z,36.75
2019-06-27T17:45:44.543Z,36.56
2019-06-27T17:48:13.767Z,36.48
2019-06-27T17:50:42.967Z,36.75
2019-06-27T17:53:12.459Z,37.05
2019-06-27T17:55:41.679Z,36.99
2019-06-27T17:58:10.906Z,36.92
2019-06-27T18:00:40.480Z,36.78
2019-06-27T18:03:09.688Z,36.49
2019-06-27T18:05:38.908Z,36.54
2019-06-27T18:08:08.674Z,36.68
2019-06-27T18:10:37.909Z,36.41
2019-06-27T18:13:07.130Z,36.76
2019-06-27T18:15:36.573Z,36.65
2019-06-27T18:18:05.923Z,36.81
2019-06-27T18:20:35.175Z,37.15
2019-06-27T18:23:04.675Z,37.33
2019-06-27T18:25:33.883Z,37.08
2019-06-27T18:28:03.128Z,37.15
2019-06-27T18:30:32.990Z,37.54
2019-06-27T18:33:02.197Z,37.47
2019-06-27T18:35:32.336Z,38.00
2019-06-27T18:38:01.813Z,37.88
2019-06-27T18:40:31.035Z,37.96
2019-06-27T18:43:00.247Z,37.78
2019-06-27T18:45:29.812Z,37.77
2019-06-27T18:47:59.046Z,37.78
2019-06-27T18:50:28.243Z,38.04
2019-06-27T18:52:57.709Z,38.00
2019-06-27T18:55:26.916Z,37.92
2019-06-27T18:57:56.140Z,38.33
2019-06-27T19:00:26.371Z,38.32
2019-06-27T19:02:55.596Z,38.28
2019-06-27T19:05:24.822Z,38.63
2019-06-27T19:07:54.177Z,38.59
2019-06-27T19:10:23.371Z,38.74
2019-06-27T19:12:52.584Z,39.00
2019-06-27T19:15:22.126Z,39.35
2019-06-27T19:17:51.354Z,39.19
2019-06-27T19:20:26.885Z,39.36
2019-06-27T19:23:24.167Z,39.41
2019-06-27T19:25:55.679Z,39.36
2019-06-27T19:28:24.892Z,39.42
2019-06-27T19:30:54.095Z,39.58
2019-06-27T19:33:23.710Z,39.85
2019-06-27T19:35:52.911Z,39.88
2019-06-27T19:38:23.126Z,39.76
2019-06-27T19:40:52.580Z,39.85
2019-06-27T19:43:27.536Z,40.12
2019-06-27T19:45:53.183Z,40.45
2019-06-27T19:48:22.751Z,40.52
2019-06-27T19:50:51.965Z,40.54
2019-06-27T19:53:21.471Z,40.67
2019-06-27T19:55:50.925Z,40.71
2019-06-27T19:58:21.089Z,40.74
2019-06-27T20:00:50.431Z,41.02
2019-06-27T20:03:19.682Z,41.42
2019-06-27T20:05:48.998Z,41.90
2019-06-27T20:08:20.155Z,42.02
2019-06-27T20:10:49.730Z,42.07
2019-06-27T20:13:19.154Z,42.30
2019-06-27T20:15:48.384Z,42.39
2019-06-27T20:18:17.819Z,42.50
2019-06-27T20:20:47.549Z,42.81
2019-06-27T20:23:16.796Z,43.03
2019-06-27T20:25:46.383Z,43.33
2019-06-27T20:28:15.959Z,43.67
2019-06-27T20:30:48.405Z,43.72
2019-06-27T20:33:17.849Z,44.00
2019-06-27T20:35:48.874Z,44.17
2019-06-27T20:38:33.840Z,44.40
2019-06-27T20:40:51.505Z,44.45
2019-06-27T20:43:20.752Z,44.43
2019-06-27T20:45:50.481Z,44.67
2019-06-27T20:48:19.728Z,44.83
2019-06-27T20:50:49.085Z,45.01
2019-06-27T20:53:19.002Z,45.17
2019-06-27T20:55:48.088Z,45.35
2019-06-27T20:58:17.358Z,45.45
2019-06-27T21:00:46.799Z,45.47
2019-06-27T21:03:16.389Z,45.61
2019-06-27T21:05:45.699Z,45.82
2019-06-27T21:08:15.198Z,46.01
2019-06-27T21:10:44.565Z,46.32
2019-06-27T21:13:13.769Z,46.63
2019-06-27T21:15:43.221Z,46.67
2019-06-27T21:18:12.476Z,46.61
2019-06-27T21:20:41.769Z,47.01
2019-06-27T21:23:12.650Z,47.28
2019-06-27T21:25:41.918Z,47.18
2019-06-27T21:28:11.134Z,47.29
2019-06-27T21:30:40.649Z,47.67
2019-06-27T21:33:09.899Z,47.66
2019-06-27T21:35:39.148Z,47.74
2019-06-27T21:38:08.470Z,47.92
2019-06-27T21:40:37.750Z,47.98
2019-06-27T21:43:07.040Z,48.06
2019-06-27T21:45:36.548Z,48.22
2019-06-27T21:48:05.878Z,48.39
2019-06-27T21:50:35.123Z,48.55
2019-06-27T21:53:04.649Z,48.79
2019-06-27T21:55:34.005Z,49.07
2019-06-27T21:58:03.233Z,49.19
2019-06-27T22:00:35.878Z,49.34
2019-06-27T22:03:05.276Z,49.47
2019-06-27T22:05:34.583Z,49.43
2019-06-27T22:08:04.041Z,49.48
2019-06-27T22:10:33.402Z,49.66
2019-06-27T22:13:02.618Z,49.67
2019-06-27T22:15:32.003Z,49.79
2019-06-27T22:18:01.267Z,49.64
2019-06-27T22:20:30.475Z,49.63
2019-06-27T22:22:59.944Z,50.01
2019-06-27T22:25:39.926Z,50.02
2019-06-27T22:28:00.186Z,50.02
2019-06-27T22:30:29.692Z,49.99
2019-06-27T22:32:58.918Z,49.86
2019-06-27T22:35:28.144Z,49.90
2019-06-27T22:38:15.081Z,49.95
2019-06-27T22:41:02.084Z,50.03
2019-06-27T22:43:49.128Z,50.05
2019-06-27T22:46:35.887Z,50.12
2019-06-27T22:49:04.521Z,49.85
2019-06-27T22:51:51.723Z,49.66
2019-06-27T22:54:23.037Z,49.50
2019-06-27T22:56:52.296Z,49.42
2019-06-27T22:59:21.517Z,49.28
2019-06-27T23:01:50.843Z,49.19
2019-06-27T23:04:20.067Z,49.45
2019-06-27T23:06:49.296Z,49.45
2019-06-27T23:09:18.770Z,49.32
2019-06-27T23:11:47.975Z,49.11
2019-06-27T23:14:17.217Z,48.98
2019-06-27T23:16:46.675Z,48.99
2019-06-27T23:19:15.895Z,48.94
2019-06-27T23:21:45.094Z,49.13
2019-06-27T23:24:14.511Z,49.13
2019-06-27T23:26:43.767Z,49.40
2019-06-27T23:29:12.980Z,49.59
2019-06-27T23:31:42.687Z,49.58
2019-06-27T23:34:11.901Z,49.68
2019-06-27T23:36:41.107Z,49.76
2019-06-27T23:39:10.544Z,49.64
2019-06-27T23:41:39.916Z,49.65
2019-06-27T23:44:09.121Z,49.75
2019-06-27T23:46:44.830Z,49.88
2019-06-27T23:49:14.035Z,49.95
2019-06-27T23:51:43.336Z,50.00
2019-06-27T23:54:12.639Z,49.89
2019-06-27T23:56:42.019Z,49.87
2019-06-27T23:59:11.531Z,49.74
